Time;durP1;ratioP1;P1;durP2;ratioP2;P2;SDS_P1;SDS_P2;PMS_P1;PMS_P2;Temp;Humidity;BMP_temperature;BMP_pressure;BME280_temperature;BME280_humidity;BME280_pressure;Samples;Min_cycle;Max_cycle;Signal;HPM_P1;HPM_P2
2023/04/24 00:01:52;;;;;;;12.80;5.70;;;;;;;10.85;50.24;98392.05;105147;1258;105511;-73
2023/04/24 00:04:20;;;;;;;14.10;6.30;;;;;;;10.88;50.37;98388.09;105273;1257;96683;-73
2023/04/24 00:06:53;;;;;;;12.30;5.80;;;;;;;10.90;50.31;98384.57;105306;1256;98253;-72
2023/04/24 00:09:21;;;;;;;14.30;5.90;;;;;;;10.90;50.40;98381.52;105236;1253;109359;-73
2023/04/24 00:11:50;;;;;;;14.80;6.20;;;;;;;10.90;50.39;98379.81;105224;1254;102242;-73
2023/04/24 00:14:18;;;;;;;12.30;5.50;;;;;;;10.91;50.40;98378.29;105347;1267;107633;-72
2023/04/24 00:16:45;;;;;;;12.60;5.60;;;;;;;10.94;50.42;98373.02;104877;1261;96650;-73
2023/04/24 00:19:14;;;;;;;14.20;5.70;;;;;;;10.96;50.40;98374.81;105246;1253;97180;-74
2023/04/24 00:21:42;;;;;;;12.50;5.50;;;;;;;10.97;50.43;98374.39;105120;1257;110241;-74
2023/04/24 00:24:10;;;;;;;13.00;5.80;;;;;;;10.96;50.49;98371.45;105078;1256;102203;-74
2023/04/24 00:26:39;;;;;;;12.20;5.50;;;;;;;10.96;50.56;98368.98;105212;1252;107058;-73
2023/04/24 00:29:07;;;;;;;15.30;6.00;;;;;;;10.95;50.54;98364.55;105124;1253;96690;-72
2023/04/24 00:31:34;;;;;;;14.10;6.00;;;;;;;10.94;50.55;98363.27;105263;1257;97401;-77
2023/04/24 00:34:03;;;;;;;14.50;6.40;;;;;;;10.93;50.58;98359.09;105010;1272;109749;-72
2023/04/24 00:36:32;;;;;;;12.50;5.90;;;;;;;10.94;50.65;98360.98;105242;1259;104069;-73
2023/04/24 00:39:00;;;;;;;14.50;5.60;;;;;;;10.93;50.58;98354.83;105184;1257;105834;-73
2023/04/24 00:41:28;;;;;;;13.80;5.50;;;;;;;10.92;50.68;98353.00;105183;1260;96584;-72
2023/04/24 00:43:56;;;;;;;15.90;5.60;;;;;;;10.91;50.74;98350.95;105187;1256;97915;-74
2023/04/24 00:46:24;;;;;;;15.40;6.50;;;;;;;10.90;50.74;98347.64;105246;1255;108178;-73
2023/04/24 00:48:52;;;;;;;14.80;5.90;;;;;;;10.88;50.76;98351.38;105461;1252;101653;-73
2023/04/24 00:51:20;;;;;;;13.50;5.80;;;;;;;10.84;50.83;98350.40;105171;1253;106792;-73
2023/04/24 00:53:48;;;;;;;13.10;5.70;;;;;;;10.82;50.72;98347.80;105190;1258;97787;-74
2023/04/24 00:56:17;;;;;;;13.10;5.40;;;;;;;10.78;50.76;98348.66;105251;1255;97937;-73
2023/04/24 00:58:45;;;;;;;15.70;6.20;;;;;;;10.75;50.81;98344.86;105368;1257;109834;-74
2023/04/24 01:01:13;;;;;;;13.40;5.60;;;;;;;10.73;50.85;98345.21;105063;1257;103682;-74
2023/04/24 01:03:42;;;;;;;12.70;5.60;;;;;;;10.70;50.90;98344.17;105124;1275;105920;-73
2023/04/24 01:06:10;;;;;;;13.00;5.40;;;;;;;10.69;50.88;98348.16;105134;1252;97106;-73
2023/04/24 01:08:40;;;;;;;12.80;5.80;;;;;;;10.67;50.86;98346.04;105387;1253;96699;-73
2023/04/24 01:11:08;;;;;;;10.80;5.90;;;;;;;10.65;50.97;98345.50;104981;1257;109947;-73
2023/04/24 01:13:35;;;;;;;15.60;6.10;;;;;;;10.64;50.96;98347.56;105198;1263;102248;-73
2023/04/24 01:16:03;;;;;;;16.30;6.30;;;;;;;10.60;51.02;98345.23;105109;1257;107231;-73
2023/04/24 01:18:32;;;;;;;13.40;6.10;;;;;;;10.58;50.99;98343.25;105437;1253;96584;-78
2023/04/24 01:21:03;;;;;;;14.10;5.70;;;;;;;10.57;51.07;98345.77;105328;1252;97008;-72
2023/04/24 01:23:32;;;;;;;13.40;5.60;;;;;;;10.58;51.07;98341.14;105105;1257;109528;-73
2023/04/24 01:26:00;;;;;;;15.30;6.20;;;;;;;10.55;51.10;98345.58;104959;1258;101898;-73
2023/04/24 01:28:29;;;;;;;12.30;5.50;;;;;;;10.54;51.12;98343.08;105059;1258;107250;-72
2023/04/24 01:30:57;;;;;;;13.70;6.60;;;;;;;10.53;51.21;98344.52;105180;1257;96594;-73
2023/04/24 01:33:25;;;;;;;12.50;5.40;;;;;;;10.54;51.22;98342.70;105324;1253;97413;-72
2023/04/24 01:35:54;;;;;;;14.90;6.60;;;;;;;10.55;51.24;98340.83;105043;1253;110167;-73
2023/04/24 01:38:22;;;;;;;11.40;5.90;;;;;;;10.55;51.20;98335.30;105253;1257;101921;-73
2023/04/24 01:40:51;;;;;;;13.70;5.70;;;;;;;10.58;51.27;98337.90;105076;1258;107448;-72
2023/04/24 01:43:20;;;;;;;14.10;5.60;;;;;;;10.60;51.28;98334.09;105162;1264;96679;-72
2023/04/24 01:45:47;;;;;;;11.20;5.40;;;;;;;10.63;51.38;98333.46;105167;1252;97101;-74
2023/04/24 01:48:15;;;;;;;12.20;5.70;;;;;;;10.65;51.38;98332.89;105433;1256;109903;-73
2023/04/24 01:50:43;;;;;;;12.70;5.70;;;;;;;10.68;51.34;98331.94;105260;1256;102150;-73
2023/04/24 01:53:12;;;;;;;14.20;6.00;;;;;;;10.69;51.38;98332.02;104943;1257;107688;-73
2023/04/24 01:55:41;;;;;;;12.70;5.50;;;;;;;10.70;51.38;98326.27;105210;1258;96597;-72
2023/04/24 01:58:09;;;;;;;13.00;5.20;;;;;;;10.71;51.44;98325.13;105282;1256;97112;-71
2023/04/24 02:00:37;;;;;;;13.00;5.60;;;;;;;10.72;51.39;98320.59;105195;1253;109890;-72
2023/04/24 02:03:05;;;;;;;12.90;5.20;;;;;;;10.74;51.49;98322.24;105222;1258;102325;-73
2023/04/24 02:05:34;;;;;;;11.00;5.00;;;;;;;10.75;51.45;98323.36;105231;1267;106999;-73
2023/04/24 02:08:02;;;;;;;13.90;5.70;;;;;;;10.78;51.46;98321.76;105050;1258;96588;-73
2023/04/24 02:10:30;;;;;;;13.00;5.60;;;;;;;10.81;51.50;98320.89;105227;1257;98251;-75
2023/04/24 02:12:59;;;;;;;12.00;5.20;;;;;;;10.82;51.51;98316.58;104975;1275;111009;-72
2023/04/24 02:15:27;;;;;;;12.60;5.60;;;;;;;10.85;51.54;98316.46;105031;1256;100940;-72
2023/04/24 02:17:55;;;;;;;10.90;5.50;;;;;;;10.87;51.51;98316.64;105200;1267;107631;-73
2023/04/24 02:20:23;;;;;;;11.80;5.60;;;;;;;10.88;51.51;98315.70;105233;1257;96703;-72
2023/04/24 02:22:51;;;;;;;14.80;6.60;;;;;;;10.86;51.49;98316.44;104981;1257;97115;-73
2023/04/24 02:25:20;;;;;;;10.30;5.20;;;;;;;10.83;51.57;98315.27;105237;1257;109844;-73
2023/04/24 02:27:48;;;;;;;12.20;5.00;;;;;;;10.82;51.55;98315.16;105248;1267;102384;-73
2023/04/24 02:30:16;;;;;;;13.50;5.20;;;;;;;10.80;51.57;98313.56;105180;1265;106780;-74
2023/04/24 02:32:44;;;;;;;10.30;5.00;;;;;;;10.78;51.50;98310.39;105306;1257;97627;-73
2023/04/24 02:35:12;;;;;;;11.10;5.20;;;;;;;10.76;51.54;98307.52;105330;1252;97112;-71
2023/04/24 02:37:40;;;;;;;13.10;5.70;;;;;;;10.73;51.56;98302.99;105275;1257;109790;-72
2023/04/24 02:40:09;;;;;;;13.70;5.50;;;;;;;10.68;51.55;98300.89;105278;1257;100176;-73
2023/04/24 02:42:37;;;;;;;11.30;5.30;;;;;;;10.64;51.62;98300.70;105085;1257;106831;-74
2023/04/24 02:45:05;;;;;;;13.70;5.70;;;;;;;10.60;51.55;98300.67;105180;1261;97899;-72
2023/04/24 02:47:33;;;;;;;11.10;5.60;;;;;;;10.57;51.63;98297.77;105301;1252;97097;-72
2023/04/24 02:50:02;;;;;;;12.90;5.50;;;;;;;10.53;51.63;98297.90;104984;1253;110025;-73
2023/04/24 02:52:30;;;;;;;13.30;6.00;;;;;;;10.49;51.61;98299.30;105186;1257;102021;-72
2023/04/24 02:54:59;;;;;;;15.50;5.90;;;;;;;10.45;51.71;98294.16;105583;1258;105970;-72
2023/04/24 02:57:27;;;;;;;13.10;6.10;;;;;;;10.40;51.71;98298.64;105052;1253;96679;-73
2023/04/24 02:59:55;;;;;;;12.50;5.90;;;;;;;10.34;51.76;98297.15;105292;1256;97171;-73
2023/04/24 03:02:23;;;;;;;13.30;5.80;;;;;;;10.28;51.76;98296.09;105320;1253;109385;-73
2023/04/24 03:04:51;;;;;;;13.80;5.60;;;;;;;10.22;51.87;98296.60;105089;1257;102985;-73
2023/04/24 03:07:20;;;;;;;14.80;6.20;;;;;;;10.16;51.93;98296.18;105315;1257;109016;-74
2023/04/24 03:09:48;;;;;;;11.30;5.50;;;;;;;10.11;51.87;98295.19;105320;1275;96600;-73
2023/04/24 03:12:17;;;;;;;12.80;5.60;;;;;;;10.06;51.98;98302.81;105424;1256;97135;-73
2023/04/24 03:14:45;;;;;;;12.80;5.70;;;;;;;10.05;51.89;98298.02;105265;1252;109919;-73
2023/04/24 03:17:13;;;;;;;14.30;5.80;;;;;;;10.02;51.97;98302.85;105118;1253;100929;-72
2023/04/24 03:19:41;;;;;;;13.80;5.90;;;;;;;9.99;51.97;98297.80;105285;1267;105621;-73
2023/04/24 03:22:09;;;;;;;13.50;6.30;;;;;;;9.97;52.03;98301.31;105200;1256;96616;-73
2023/04/24 03:24:37;;;;;;;14.90;6.70;;;;;;;9.94;52.03;98299.58;105374;1257;97035;-73
2023/04/24 03:27:05;;;;;;;16.50;6.60;;;;;;;9.92;52.06;98295.85;105292;1253;110041;-73
2023/04/24 03:29:33;;;;;;;13.80;6.30;;;;;;;9.92;52.05;98300.98;105247;1256;101961;-72
2023/04/24 03:32:01;;;;;;;16.30;6.10;;;;;;;9.92;52.11;98301.85;105244;1268;107692;-73
2023/04/24 03:34:29;;;;;;;14.70;5.90;;;;;;;9.91;52.22;98302.10;105353;1257;97516;-74
2023/04/24 03:36:56;;;;;;;14.30;6.00;;;;;;;9.90;52.26;98301.48;105360;1252;98608;-74
2023/04/24 03:39:25;;;;;;;10.50;5.60;;;;;;;9.91;52.31;98302.71;105066;1259;110022;-73
2023/04/24 03:41:53;;;;;;;15.80;6.10;;;;;;;9.92;52.30;98303.79;105045;1253;102258;-72
2023/04/24 03:44:20;;;;;;;15.30;6.40;;;;;;;9.95;52.31;98308.13;105015;1266;107104;-72
2023/04/24 03:46:48;;;;;;;12.80;5.90;;;;;;;9.99;52.49;98310.83;105247;1252;97935;-72
2023/04/24 03:49:16;;;;;;;17.10;6.40;;;;;;;10.06;52.56;98314.39;104989;1257;98437;-74
2023/04/24 03:51:44;;;;;;;15.60;6.10;;;;;;;10.13;52.58;98312.21;105378;1253;111245;-72
2023/04/24 03:54:13;;;;;;;15.50;6.30;;;;;;;10.20;52.59;98311.44;105269;1255;101993;-73
2023/04/24 03:56:41;;;;;;;12.40;5.60;;;;;;;10.29;52.72;98315.35;105618;1257;106174;-72
2023/04/24 03:59:09;;;;;;;12.10;5.70;;;;;;;10.36;52.74;98313.31;105532;1257;97407;-73
2023/04/24 04:01:37;;;;;;;12.90;5.80;;;;;;;10.45;52.73;98313.85;105265;1259;96597;-73
2023/04/24 04:04:07;;;;;;;14.90;5.90;;;;;;;10.56;52.71;98314.52;105432;1254;110967;-75
2023/04/24 04:06:38;;;;;;;14.00;5.50;;;;;;;10.68;52.75;98313.15;105475;1257;102952;-78
2023/04/24 04:09:08;;;;;;;13.50;5.90;;;;;;;10.79;52.83;98312.23;105540;1253;108256;-79
2023/04/24 04:11:36;;;;;;;13.90;6.10;;;;;;;10.92;52.79;98309.36;105316;1253;97973;-81
2023/04/24 04:14:05;;;;;;;15.10;5.80;;;;;;;11.04;52.82;98305.85;105005;1255;97148;-80
2023/04/24 04:16:36;;;;;;;13.80;5.60;;;;;;;11.15;52.88;98304.87;105104;1257;109878;-82
2023/04/24 04:19:05;;;;;;;15.10;6.80;;;;;;;11.25;52.92;98305.97;105386;1257;102024;-78
